sensor_id;sensor_type;location;lat;lon;timestamp;P1;durP1;ratioP1;P2;durP2;ratioP2
12271;SDS011;6198;51.446;6.698;2023-11-21T00:00:55;47.90;;;22.67;;
12271;SDS011;6198;51.446;6.698;2023-11-21T00:03:21;40.87;;;21.03;;
12271;SDS011;6198;51.446;6.698;2023-11-21T00:05:48;43.63;;;21.20;;
12271;SDS011;6198;51.446;6.698;2023-11-21T00:08:14;36.00;;;20.47;;
12271;SDS011;6198;51.446;6.698;2023-11-21T00:10:40;44.20;;;20.83;;
12271;SDS011;6198;51.446;6.698;2023-11-21T00:13:06;42.47;;;22.07;;
12271;SDS011;6198;51.446;6.698;2023-11-21T00:15:32;38.87;;;20.90;;
12271;SDS011;6198;51.446;6.698;2023-11-21T00:17:59;44.65;;;26.63;;
12271;SDS011;6198;51.446;6.698;2023-11-21T00:20:25;36.50;;;22.50;;
12271;SDS011;6198;51.446;6.698;2023-11-21T00:22:51;38.80;;;21.07;;
12271;SDS011;6198;51.446;6.698;2023-11-21T00:25:17;44.00;;;19.60;;
12271;SDS011;6198;51.446;6.698;2023-11-21T00:27:43;37.43;;;19.23;;
12271;SDS011;6198;51.446;6.698;2023-11-21T00:30:09;35.70;;;18.07;;
12271;SDS011;6198;51.446;6.698;2023-11-21T00:32:36;33.70;;;18.23;;
12271;SDS011;6198;51.446;6.698;2023-11-21T00:35:02;35.63;;;18.97;;
12271;SDS011;6198;51.446;6.698;2023-11-21T00:37:28;30.67;;;18.13;;
12271;SDS011;6198;51.446;6.698;2023-11-21T00:39:57;37.87;;;18.90;;
12271;SDS011;6198;51.446;6.698;2023-11-21T00:42:22;33.77;;;19.00;;
12271;SDS011;6198;51.446;6.698;2023-11-21T00:44:48;34.40;;;18.00;;
12271;SDS011;6198;51.446;6.698;2023-11-21T00:47:15;31.13;;;19.90;;
12271;SDS011;6198;51.446;6.698;2023-11-21T00:49:41;30.33;;;18.80;;
12271;SDS011;6198;51.446;6.698;2023-11-21T00:52:08;35.57;;;19.20;;
12271;SDS011;6198;51.446;6.698;2023-11-21T00:54:34;31.83;;;18.50;;
12271;SDS011;6198;51.446;6.698;2023-11-21T00:57:00;35.73;;;23.20;;
12271;SDS011;6198;51.446;6.698;2023-11-21T00:59:27;31.47;;;18.40;;
12271;SDS011;6198;51.446;6.698;2023-11-21T01:01:52;36.77;;;18.57;;
12271;SDS011;6198;51.446;6.698;2023-11-21T01:04:19;37.20;;;18.10;;
12271;SDS011;6198;51.446;6.698;2023-11-21T01:06:45;35.27;;;18.03;;
12271;SDS011;6198;51.446;6.698;2023-11-21T01:09:11;36.97;;;18.87;;
12271;SDS011;6198;51.446;6.698;2023-11-21T01:11:37;34.63;;;19.33;;
12271;SDS011;6198;51.446;6.698;2023-11-21T01:14:04;27.93;;;18.27;;
12271;SDS011;6198;51.446;6.698;2023-11-21T01:16:31;31.73;;;18.57;;
12271;SDS011;6198;51.446;6.698;2023-11-21T01:18:57;25.47;;;18.13;;
12271;SDS011;6198;51.446;6.698;2023-11-21T01:21:24;39.87;;;23.87;;
12271;SDS011;6198;51.446;6.698;2023-11-21T01:23:50;28.37;;;19.17;;
12271;SDS011;6198;51.446;6.698;2023-11-21T01:26:16;33.83;;;17.97;;
12271;SDS011;6198;51.446;6.698;2023-11-21T01:28:42;31.07;;;19.67;;
12271;SDS011;6198;51.446;6.698;2023-11-21T01:31:08;31.17;;;19.20;;
12271;SDS011;6198;51.446;6.698;2023-11-21T01:33:33;41.05;;;25.95;;
12271;SDS011;6198;51.446;6.698;2023-11-21T01:35:59;38.23;;;21.63;;
12271;SDS011;6198;51.446;6.698;2023-11-21T01:38:25;34.87;;;20.63;;
12271;SDS011;6198;51.446;6.698;2023-11-21T01:40:52;30.63;;;19.47;;
12271;SDS011;6198;51.446;6.698;2023-11-21T01:43:18;38.67;;;20.70;;
12271;SDS011;6198;51.446;6.698;2023-11-21T01:45:44;34.40;;;19.40;;
12271;SDS011;6198;51.446;6.698;2023-11-21T01:48:12;40.20;;;20.80;;
12271;SDS011;6198;51.446;6.698;2023-11-21T01:50:39;35.77;;;19.83;;
12271;SDS011;6198;51.446;6.698;2023-11-21T01:53:05;34.50;;;18.70;;
12271;SDS011;6198;51.446;6.698;2023-11-21T01:55:31;32.93;;;20.47;;
12271;SDS011;6198;51.446;6.698;2023-11-21T01:57:58;36.45;;;25.25;;
12271;SDS011;6198;51.446;6.698;2023-11-21T02:00:25;31.10;;;20.20;;
12271;SDS011;6198;51.446;6.698;2023-11-21T02:02:53;41.03;;;20.73;;
12271;SDS011;6198;51.446;6.698;2023-11-21T02:05:19;34.33;;;19.90;;
12271;SDS011;6198;51.446;6.698;2023-11-21T02:07:46;35.07;;;21.03;;
12271;SDS011;6198;51.446;6.698;2023-11-21T02:10:17;33.80;;;18.90;;
12271;SDS011;6198;51.446;6.698;2023-11-21T02:12:47;29.10;;;19.70;;
12271;SDS011;6198;51.446;6.698;2023-11-21T02:15:15;39.60;;;20.87;;
12271;SDS011;6198;51.446;6.698;2023-11-21T02:17:44;32.73;;;20.07;;
12271;SDS011;6198;51.446;6.698;2023-11-21T02:20:12;35.47;;;20.33;;
12271;SDS011;6198;51.446;6.698;2023-11-21T02:22:40;35.90;;;19.27;;
12271;SDS011;6198;51.446;6.698;2023-11-21T02:25:09;29.67;;;19.90;;
12271;SDS011;6198;51.446;6.698;2023-11-21T02:27:36;37.30;;;21.00;;
12271;SDS011;6198;51.446;6.698;2023-11-21T02:30:02;41.53;;;21.70;;
12271;SDS011;6198;51.446;6.698;2023-11-21T02:32:29;34.20;;;21.83;;
12271;SDS011;6198;51.446;6.698;2023-11-21T02:34:56;42.40;;;21.20;;
12271;SDS011;6198;51.446;6.698;2023-11-21T02:37:26;40.23;;;22.53;;
12271;SDS011;6198;51.446;6.698;2023-11-21T02:39:52;39.97;;;21.80;;
12271;SDS011;6198;51.446;6.698;2023-11-21T02:42:18;38.30;;;22.37;;
12271;SDS011;6198;51.446;6.698;2023-11-21T02:44:44;44.13;;;21.67;;
12271;SDS011;6198;51.446;6.698;2023-11-21T02:47:10;36.37;;;22.67;;
12271;SDS011;6198;51.446;6.698;2023-11-21T02:49:36;36.07;;;21.40;;
12271;SDS011;6198;51.446;6.698;2023-11-21T02:52:02;35.43;;;21.47;;
12271;SDS011;6198;51.446;6.698;2023-11-21T02:54:28;40.53;;;21.97;;
12271;SDS011;6198;51.446;6.698;2023-11-21T02:56:54;43.50;;;22.23;;
12271;SDS011;6198;51.446;6.698;2023-11-21T02:59:20;49.80;;;23.60;;
12271;SDS011;6198;51.446;6.698;2023-11-21T03:01:46;42.97;;;23.73;;
12271;SDS011;6198;51.446;6.698;2023-11-21T03:04:12;39.23;;;22.80;;
12271;SDS011;6198;51.446;6.698;2023-11-21T03:06:43;41.33;;;21.97;;
12271;SDS011;6198;51.446;6.698;2023-11-21T03:09:09;40.17;;;22.53;;
12271;SDS011;6198;51.446;6.698;2023-11-21T03:11:37;40.27;;;21.90;;
12271;SDS011;6198;51.446;6.698;2023-11-21T03:14:03;41.50;;;21.67;;
12271;SDS011;6198;51.446;6.698;2023-11-21T03:16:30;42.27;;;23.37;;
12271;SDS011;6198;51.446;6.698;2023-11-21T03:18:56;40.43;;;22.30;;
12271;SDS011;6198;51.446;6.698;2023-11-21T03:21:22;42.10;;;22.67;;
12271;SDS011;6198;51.446;6.698;2023-11-21T03:23:48;41.03;;;23.33;;
12271;SDS011;6198;51.446;6.698;2023-11-21T03:26:14;39.40;;;22.80;;
12271;SDS011;6198;51.446;6.698;2023-11-21T03:28:40;44.60;;;24.57;;
12271;SDS011;6198;51.446;6.698;2023-11-21T03:31:06;42.77;;;23.83;;
12271;SDS011;6198;51.446;6.698;2023-11-21T03:33:33;46.10;;;24.13;;
12271;SDS011;6198;51.446;6.698;2023-11-21T03:36:00;43.03;;;23.83;;
12271;SDS011;6198;51.446;6.698;2023-11-21T03:38:26;45.40;;;23.67;;
12271;SDS011;6198;51.446;6.698;2023-11-21T03:40:52;39.77;;;24.03;;
12271;SDS011;6198;51.446;6.698;2023-11-21T03:43:18;41.10;;;24.43;;
12271;SDS011;6198;51.446;6.698;2023-11-21T03:45:44;45.20;;;24.50;;
12271;SDS011;6198;51.446;6.698;2023-11-21T03:48:12;40.73;;;23.27;;
12271;SDS011;6198;51.446;6.698;2023-11-21T03:50:38;44.83;;;23.27;;
12271;SDS011;6198;51.446;6.698;2023-11-21T03:53:04;39.90;;;22.43;;
12271;SDS011;6198;51.446;6.698;2023-11-21T03:55:30;43.63;;;23.37;;
12271;SDS011;6198;51.446;6.698;2023-11-21T03:57:57;41.17;;;23.47;;
12271;SDS011;6198;51.446;6.698;2023-11-21T04:00:23;40.40;;;23.77;;
12271;SDS011;6198;51.446;6.698;2023-11-21T04:02:49;44.67;;;23.90;;
12271;SDS011;6198;51.446;6.698;2023-11-21T04:05:16;44.07;;;22.47;;
12271;SDS011;6198;51.446;6.698;2023-11-21T04:07:42;41.10;;;22.67;;
12271;SDS011;6198;51.446;6.698;2023-11-21T04:10:10;47.43;;;23.20;;
12271;SDS011;6198;51.446;6.698;2023-11-21T04:12:38;48.27;;;24.13;;
12271;SDS011;6198;51.446;6.698;2023-11-21T04:15:04;39.27;;;23.77;;
12271;SDS011;6198;51.446;6.698;2023-11-21T04:17:30;47.43;;;23.50;;
12271;SDS011;6198;51.446;6.698;2023-11-21T04:19:56;44.00;;;23.60;;
12271;SDS011;6198;51.446;6.698;2023-11-21T04:22:22;43.03;;;23.80;;
12271;SDS011;6198;51.446;6.698;2023-11-21T04:24:48;42.67;;;22.80;;
12271;SDS011;6198;51.446;6.698;2023-11-21T04:27:14;47.93;;;22.90;;
12271;SDS011;6198;51.446;6.698;2023-11-21T04:29:43;39.80;;;21.90;;
12271;SDS011;6198;51.446;6.698;2023-11-21T04:32:09;48.63;;;24.37;;
12271;SDS011;6198;51.446;6.698;2023-11-21T04:34:35;43.60;;;23.33;;
12271;SDS011;6198;51.446;6.698;2023-11-21T04:37:01;44.87;;;24.23;;
12271;SDS011;6198;51.446;6.698;2023-11-21T04:39:28;54.20;;;24.00;;
12271;SDS011;6198;51.446;6.698;2023-11-21T04:41:54;47.97;;;25.33;;
12271;SDS011;6198;51.446;6.698;2023-11-21T04:44:20;54.13;;;25.43;;
12271;SDS011;6198;51.446;6.698;2023-11-21T04:46:46;54.17;;;26.60;;
12271;SDS011;6198;51.446;6.698;2023-11-21T04:49:11;54.40;;;25.73;;
12271;SDS011;6198;51.446;6.698;2023-11-21T04:51:37;50.33;;;24.63;;
12271;SDS011;6198;51.446;6.698;2023-11-21T04:54:04;47.80;;;24.00;;
12271;SDS011;6198;51.446;6.698;2023-11-21T04:56:30;51.27;;;25.23;;
12271;SDS011;6198;51.446;6.698;2023-11-21T04:58:56;60.00;;;26.60;;
12271;SDS011;6198;51.446;6.698;2023-11-21T05:01:23;49.33;;;25.90;;
12271;SDS011;6198;51.446;6.698;2023-11-21T05:03:49;53.83;;;27.20;;
12271;SDS011;6198;51.446;6.698;2023-11-21T05:06:15;52.43;;;26.37;;
12271;SDS011;6198;51.446;6.698;2023-11-21T05:08:41;50.47;;;24.47;;
12271;SDS011;6198;51.446;6.698;2023-11-21T05:11:07;51.43;;;25.77;;
12271;SDS011;6198;51.446;6.698;2023-11-21T05:13:35;52.30;;;25.07;;
12271;SDS011;6198;51.446;6.698;2023-11-21T05:16:01;53.67;;;27.07;;
12271;SDS011;6198;51.446;6.698;2023-11-21T05:18:29;55.00;;;27.47;;
12271;SDS011;6198;51.446;6.698;2023-11-21T05:20:55;68.37;;;30.90;;
12271;SDS011;6198;51.446;6.698;2023-11-21T05:23:21;61.70;;;28.20;;
12271;SDS011;6198;51.446;6.698;2023-11-21T05:25:47;72.70;;;31.00;;
12271;SDS011;6198;51.446;6.698;2023-11-21T05:28:13;76.07;;;30.97;;
12271;SDS011;6198;51.446;6.698;2023-11-21T05:30:39;63.27;;;30.17;;
12271;SDS011;6198;51.446;6.698;2023-11-21T05:33:05;71.20;;;30.47;;
12271;SDS011;6198;51.446;6.698;2023-11-21T05:35:31;67.63;;;29.67;;
12271;SDS011;6198;51.446;6.698;2023-11-21T05:37:57;96.70;;;33.23;;
12271;SDS011;6198;51.446;6.698;2023-11-21T05:40:23;88.57;;;32.53;;
12271;SDS011;6198;51.446;6.698;2023-11-21T05:42:51;87.30;;;34.37;;
12271;SDS011;6198;51.446;6.698;2023-11-21T05:45:17;109.57;;;35.53;;
12271;SDS011;6198;51.446;6.698;2023-11-21T05:47:44;94.17;;;35.60;;
12271;SDS011;6198;51.446;6.698;2023-11-21T05:50:11;96.87;;;35.50;;
12271;SDS011;6198;51.446;6.698;2023-11-21T05:52:39;101.83;;;34.30;;
12271;SDS011;6198;51.446;6.698;2023-11-21T05:55:06;104.00;;;36.57;;
12271;SDS011;6198;51.446;6.698;2023-11-21T05:57:33;98.33;;;33.90;;
12271;SDS011;6198;51.446;6.698;2023-11-21T06:00:01;103.17;;;34.67;;
12271;SDS011;6198;51.446;6.698;2023-11-21T06:02:35;122.30;;;38.23;;
12271;SDS011;6198;51.446;6.698;2023-11-21T06:05:01;102.33;;;37.07;;
12271;SDS011;6198;51.446;6.698;2023-11-21T06:07:29;111.97;;;36.00;;
12271;SDS011;6198;51.446;6.698;2023-11-21T06:09:55;108.13;;;37.87;;
12271;SDS011;6198;51.446;6.698;2023-11-21T06:12:21;108.73;;;36.43;;
12271;SDS011;6198;51.446;6.698;2023-11-21T06:14:47;150.18;;;48.13;;
12271;SDS011;6198;51.446;6.698;2023-11-21T06:17:13;100.17;;;36.00;;
12271;SDS011;6198;51.446;6.698;2023-11-21T06:19:39;111.37;;;35.40;;
12271;SDS011;6198;51.446;6.698;2023-11-21T06:22:05;103.23;;;34.77;;
12271;SDS011;6198;51.446;6.698;2023-11-21T06:24:31;94.37;;;33.27;;
12271;SDS011;6198;51.446;6.698;2023-11-21T06:26:57;133.52;;;47.70;;
12271;SDS011;6198;51.446;6.698;2023-11-21T06:29:23;109.17;;;36.13;;
12271;SDS011;6198;51.446;6.698;2023-11-21T06:31:49;102.13;;;35.37;;
12271;SDS011;6198;51.446;6.698;2023-11-21T06:34:15;87.17;;;33.20;;
12271;SDS011;6198;51.446;6.698;2023-11-21T06:36:41;99.20;;;35.83;;
12271;SDS011;6198;51.446;6.698;2023-11-21T06:39:07;98.93;;;35.53;;
12271;SDS011;6198;51.446;6.698;2023-11-21T06:41:33;92.83;;;35.67;;
12271;SDS011;6198;51.446;6.698;2023-11-21T06:43:59;103.23;;;37.30;;
12271;SDS011;6198;51.446;6.698;2023-11-21T06:46:25;99.03;;;34.77;;
12271;SDS011;6198;51.446;6.698;2023-11-21T06:48:52;97.10;;;34.87;;
12271;SDS011;6198;51.446;6.698;2023-11-21T06:51:17;98.70;;;36.17;;
12271;SDS011;6198;51.446;6.698;2023-11-21T06:53:43;118.87;;;39.00;;
12271;SDS011;6198;51.446;6.698;2023-11-21T06:56:19;104.90;;;36.20;;
12271;SDS011;6198;51.446;6.698;2023-11-21T06:58:45;104.03;;;37.60;;
12271;SDS011;6198;51.446;6.698;2023-11-21T07:01:12;112.73;;;38.67;;
12271;SDS011;6198;51.446;6.698;2023-11-21T07:03:38;115.50;;;38.17;;
12271;SDS011;6198;51.446;6.698;2023-11-21T07:06:04;113.87;;;37.70;;
12271;SDS011;6198;51.446;6.698;2023-11-21T07:08:30;114.90;;;38.27;;
12271;SDS011;6198;51.446;6.698;2023-11-21T07:10:56;152.90;;;49.88;;
12271;SDS011;6198;51.446;6.698;2023-11-21T07:13:22;118.47;;;41.37;;
12271;SDS011;6198;51.446;6.698;2023-11-21T07:15:48;111.33;;;38.37;;
12271;SDS011;6198;51.446;6.698;2023-11-21T07:18:14;106.73;;;37.03;;
12271;SDS011;6198;51.446;6.698;2023-11-21T07:20:40;116.10;;;37.37;;
12271;SDS011;6198;51.446;6.698;2023-11-21T07:23:06;105.30;;;35.53;;
12271;SDS011;6198;51.446;6.698;2023-11-21T07:25:32;108.27;;;36.43;;
12271;SDS011;6198;51.446;6.698;2023-11-21T07:27:58;102.73;;;36.30;;
12271;SDS011;6198;51.446;6.698;2023-11-21T07:30:25;115.37;;;36.13;;
12271;SDS011;6198;51.446;6.698;2023-11-21T07:32:52;104.70;;;36.67;;
12271;SDS011;6198;51.446;6.698;2023-11-21T07:35:18;112.93;;;36.37;;
12271;SDS011;6198;51.446;6.698;2023-11-21T07:37:43;114.53;;;37.13;;
12271;SDS011;6198;51.446;6.698;2023-11-21T07:40:09;119.57;;;35.57;;
12271;SDS011;6198;51.446;6.698;2023-11-21T07:42:36;93.47;;;33.83;;
12271;SDS011;6198;51.446;6.698;2023-11-21T07:45:03;86.67;;;33.80;;
12271;SDS011;6198;51.446;6.698;2023-11-21T07:47:29;85.73;;;32.93;;
12271;SDS011;6198;51.446;6.698;2023-11-21T07:49:54;88.37;;;33.30;;
12271;SDS011;6198;51.446;6.698;2023-11-21T07:52:21;88.80;;;32.57;;
12271;SDS011;6198;51.446;6.698;2023-11-21T07:54:47;93.63;;;33.10;;
12271;SDS011;6198;51.446;6.698;2023-11-21T07:57:14;91.67;;;33.53;;
12271;SDS011;6198;51.446;6.698;2023-11-21T07:59:40;86.40;;;33.57;;
12271;SDS011;6198;51.446;6.698;2023-11-21T08:02:06;81.80;;;31.90;;
12271;SDS011;6198;51.446;6.698;2023-11-21T08:04:33;87.13;;;33.13;;
12271;SDS011;6198;51.446;6.698;2023-11-21T08:07:00;82.20;;;32.07;;
12271;SDS011;6198;51.446;6.698;2023-11-21T08:09:26;82.27;;;33.57;;
12271;SDS011;6198;51.446;6.698;2023-11-21T08:11:52;79.47;;;33.50;;
12271;SDS011;6198;51.446;6.698;2023-11-21T08:14:18;94.13;;;34.20;;
12271;SDS011;6198;51.446;6.698;2023-11-21T08:16:45;84.00;;;33.63;;
12271;SDS011;6198;51.446;6.698;2023-11-21T08:19:11;83.67;;;32.80;;
12271;SDS011;6198;51.446;6.698;2023-11-21T08:21:37;89.67;;;33.40;;
12271;SDS011;6198;51.446;6.698;2023-11-21T08:24:04;79.33;;;32.87;;
12271;SDS011;6198;51.446;6.698;2023-11-21T08:26:30;85.30;;;33.33;;
12271;SDS011;6198;51.446;6.698;2023-11-21T08:28:56;83.47;;;33.73;;
12271;SDS011;6198;51.446;6.698;2023-11-21T08:31:25;91.67;;;32.93;;
12271;SDS011;6198;51.446;6.698;2023-11-21T08:33:51;82.73;;;34.30;;
12271;SDS011;6198;51.446;6.698;2023-11-21T08:36:20;84.53;;;32.53;;
12271;SDS011;6198;51.446;6.698;2023-11-21T08:38:49;78.60;;;30.33;;
12271;SDS011;6198;51.446;6.698;2023-11-21T08:41:17;66.70;;;29.80;;
12271;SDS011;6198;51.446;6.698;2023-11-21T08:43:44;67.93;;;29.77;;
12271;SDS011;6198;51.446;6.698;2023-11-21T08:46:10;67.03;;;28.40;;
12271;SDS011;6198;51.446;6.698;2023-11-21T08:48:36;77.53;;;30.30;;
12271;SDS011;6198;51.446;6.698;2023-11-21T08:51:03;78.60;;;34.33;;
12271;SDS011;6198;51.446;6.698;2023-11-21T08:53:29;79.57;;;34.07;;
12271;SDS011;6198;51.446;6.698;2023-11-21T08:55:56;75.77;;;35.87;;
12271;SDS011;6198;51.446;6.698;2023-11-21T08:58:22;85.87;;;38.20;;
12271;SDS011;6198;51.446;6.698;2023-11-21T09:00:48;77.23;;;31.57;;
12271;SDS011;6198;51.446;6.698;2023-11-21T09:03:14;73.20;;;29.70;;
12271;SDS011;6198;51.446;6.698;2023-11-21T09:05:40;77.57;;;31.43;;
12271;SDS011;6198;51.446;6.698;2023-11-21T09:08:06;72.47;;;32.67;;
12271;SDS011;6198;51.446;6.698;2023-11-21T09:10:33;69.57;;;30.97;;
12271;SDS011;6198;51.446;6.698;2023-11-21T09:13:04;65.23;;;30.07;;
12271;SDS011;6198;51.446;6.698;2023-11-21T09:15:30;59.83;;;28.80;;
12271;SDS011;6198;51.446;6.698;2023-11-21T09:17:56;59.90;;;29.97;;
12271;SDS011;6198;51.446;6.698;2023-11-21T09:20:22;47.80;;;27.23;;
12271;SDS011;6198;51.446;6.698;2023-11-21T09:22:48;59.47;;;27.07;;
12271;SDS011;6198;51.446;6.698;2023-11-21T09:25:14;62.70;;;34.17;;
12271;SDS011;6198;51.446;6.698;2023-11-21T09:27:41;54.33;;;28.87;;
12271;SDS011;6198;51.446;6.698;2023-11-21T09:30:07;59.83;;;30.33;;
12271;SDS011;6198;51.446;6.698;2023-11-21T09:32:37;53.07;;;28.23;;
12271;SDS011;6198;51.446;6.698;2023-11-21T09:35:05;54.40;;;29.77;;
12271;SDS011;6198;51.446;6.698;2023-11-21T09:37:33;47.07;;;25.70;;
12271;SDS011;6198;51.446;6.698;2023-11-21T09:39:59;48.53;;;26.27;;
12271;SDS011;6198;51.446;6.698;2023-11-21T09:42:38;50.90;;;26.90;;
12271;SDS011;6198;51.446;6.698;2023-11-21T09:47:35;58.40;;;28.27;;
12271;SDS011;6198;51.446;6.698;2023-11-21T09:50:04;49.53;;;27.87;;
12271;SDS011;6198;51.446;6.698;2023-11-21T09:52:33;49.07;;;27.73;;
12271;SDS011;6198;51.446;6.698;2023-11-21T09:55:04;46.87;;;27.27;;
12271;SDS011;6198;51.446;6.698;2023-11-21T09:57:30;55.20;;;27.00;;
12271;SDS011;6198;51.446;6.698;2023-11-21T09:59:56;47.57;;;27.30;;
12271;SDS011;6198;51.446;6.698;2023-11-21T10:02:28;47.60;;;26.37;;
12271;SDS011;6198;51.446;6.698;2023-11-21T10:04:55;47.77;;;26.20;;
12271;SDS011;6198;51.446;6.698;2023-11-21T10:07:21;48.60;;;26.97;;
12271;SDS011;6198;51.446;6.698;2023-11-21T10:09:48;49.93;;;27.43;;
12271;SDS011;6198;51.446;6.698;2023-11-21T10:12:16;42.17;;;26.10;;
12271;SDS011;6198;51.446;6.698;2023-11-21T10:14:42;52.70;;;29.17;;
12271;SDS011;6198;51.446;6.698;2023-11-21T10:17:10;46.50;;;27.30;;
12271;SDS011;6198;51.446;6.698;2023-11-21T10:19:37;44.87;;;27.40;;
12271;SDS011;6198;51.446;6.698;2023-11-21T10:22:04;45.20;;;26.73;;
12271;SDS011;6198;51.446;6.698;2023-11-21T10:24:32;46.40;;;26.67;;
12271;SDS011;6198;51.446;6.698;2023-11-21T10:26:58;50.97;;;28.33;;
12271;SDS011;6198;51.446;6.698;2023-11-21T10:29:28;45.10;;;26.10;;
12271;SDS011;6198;51.446;6.698;2023-11-21T10:31:55;45.47;;;27.47;;
12271;SDS011;6198;51.446;6.698;2023-11-21T10:34:23;44.60;;;27.47;;
12271;SDS011;6198;51.446;6.698;2023-11-21T10:36:49;48.90;;;28.83;;
12271;SDS011;6198;51.446;6.698;2023-11-21T10:39:19;48.43;;;28.87;;
12271;SDS011;6198;51.446;6.698;2023-11-21T10:41:45;49.83;;;30.73;;
12271;SDS011;6198;51.446;6.698;2023-11-21T10:44:13;57.07;;;32.07;;
12271;SDS011;6198;51.446;6.698;2023-11-21T10:46:45;58.73;;;31.63;;
12271;SDS011;6198;51.446;6.698;2023-11-21T10:49:15;56.93;;;32.97;;
12271;SDS011;6198;51.446;6.698;2023-11-21T10:51:43;58.37;;;34.47;;
12271;SDS011;6198;51.446;6.698;2023-11-21T10:54:09;58.57;;;31.53;;
12271;SDS011;6198;51.446;6.698;2023-11-21T10:56:35;49.30;;;29.03;;
12271;SDS011;6198;51.446;6.698;2023-11-21T10:59:05;48.37;;;31.13;;
12271;SDS011;6198;51.446;6.698;2023-11-21T11:01:33;46.27;;;29.20;;
12271;SDS011;6198;51.446;6.698;2023-11-21T11:03:59;49.67;;;29.97;;
12271;SDS011;6198;51.446;6.698;2023-11-21T11:06:25;47.13;;;29.70;;
12271;SDS011;6198;51.446;6.698;2023-11-21T11:08:52;44.50;;;28.87;;
12271;SDS011;6198;51.446;6.698;2023-11-21T11:11:18;49.63;;;29.87;;
12271;SDS011;6198;51.446;6.698;2023-11-21T11:13:44;50.40;;;30.93;;
12271;SDS011;6198;51.446;6.698;2023-11-21T11:16:11;47.80;;;31.57;;
12271;SDS011;6198;51.446;6.698;2023-11-21T11:18:42;56.70;;;31.77;;
12271;SDS011;6198;51.446;6.698;2023-11-21T11:26:31;51.40;;;30.33;;
12271;SDS011;6198;51.446;6.698;2023-11-21T11:31:50;49.60;;;27.07;;
12271;SDS011;6198;51.446;6.698;2023-11-21T11:34:23;43.27;;;26.00;;
12271;SDS011;6198;51.446;6.698;2023-11-21T11:36:59;44.10;;;25.57;;
12271;SDS011;6198;51.446;6.698;2023-11-21T11:39:29;45.13;;;25.97;;
12271;SDS011;6198;51.446;6.698;2023-11-21T11:41:56;48.07;;;27.33;;
12271;SDS011;6198;51.446;6.698;2023-11-21T11:47:21;52.47;;;27.53;;
12271;SDS011;6198;51.446;6.698;2023-11-21T11:52:32;51.73;;;27.43;;
12271;SDS011;6198;51.446;6.698;2023-11-21T11:54:59;50.57;;;28.63;;
12271;SDS011;6198;51.446;6.698;2023-11-21T11:57:25;49.23;;;28.33;;
12271;SDS011;6198;51.446;6.698;2023-11-21T12:02:58;50.47;;;30.40;;
12271;SDS011;6198;51.446;6.698;2023-11-21T12:05:27;57.37;;;33.00;;
12271;SDS011;6198;51.446;6.698;2023-11-21T12:07:53;52.93;;;28.20;;
12271;SDS011;6198;51.446;6.698;2023-11-21T12:10:24;49.90;;;28.03;;
12271;SDS011;6198;51.446;6.698;2023-11-21T12:13:00;51.87;;;29.20;;
12271;SDS011;6198;51.446;6.698;2023-11-21T12:15:26;53.23;;;28.90;;
12271;SDS011;6198;51.446;6.698;2023-11-21T12:17:56;50.97;;;29.63;;
12271;SDS011;6198;51.446;6.698;2023-11-21T12:20:25;53.00;;;27.47;;
12271;SDS011;6198;51.446;6.698;2023-11-21T12:22:52;53.40;;;30.33;;
12271;SDS011;6198;51.446;6.698;2023-11-21T12:25:19;47.27;;;26.30;;
12271;SDS011;6198;51.446;6.698;2023-11-21T12:27:46;47.50;;;27.37;;
12271;SDS011;6198;51.446;6.698;2023-11-21T12:30:14;48.40;;;27.13;;
12271;SDS011;6198;51.446;6.698;2023-11-21T12:32:47;46.77;;;26.13;;
12271;SDS011;6198;51.446;6.698;2023-11-21T12:35:13;40.93;;;24.93;;
12271;SDS011;6198;51.446;6.698;2023-11-21T12:37:40;42.57;;;24.83;;
12271;SDS011;6198;51.446;6.698;2023-11-21T12:40:08;46.83;;;24.63;;
12271;SDS011;6198;51.446;6.698;2023-11-21T12:42:36;38.63;;;23.33;;
12271;SDS011;6198;51.446;6.698;2023-11-21T12:45:35;38.30;;;23.93;;
12271;SDS011;6198;51.446;6.698;2023-11-21T12:50:25;40.77;;;22.73;;
12271;SDS011;6198;51.446;6.698;2023-11-21T12:52:58;38.13;;;22.83;;
12271;SDS011;6198;51.446;6.698;2023-11-21T12:55:24;37.57;;;23.10;;
12271;SDS011;6198;51.446;6.698;2023-11-21T12:57:54;35.37;;;21.40;;
12271;SDS011;6198;51.446;6.698;2023-11-21T13:00:27;45.97;;;24.70;;
12271;SDS011;6198;51.446;6.698;2023-11-21T13:02:55;38.77;;;21.90;;
12271;SDS011;6198;51.446;6.698;2023-11-21T13:05:33;39.10;;;21.80;;
12271;SDS011;6198;51.446;6.698;2023-11-21T13:08:02;37.33;;;21.27;;
12271;SDS011;6198;51.446;6.698;2023-11-21T13:10:29;42.50;;;23.47;;
12271;SDS011;6198;51.446;6.698;2023-11-21T13:12:59;31.53;;;19.77;;
12271;SDS011;6198;51.446;6.698;2023-11-21T13:15:25;37.60;;;19.73;;
12271;SDS011;6198;51.446;6.698;2023-11-21T13:17:52;31.80;;;18.97;;
12271;SDS011;6198;51.446;6.698;2023-11-21T13:20:18;32.57;;;18.17;;
12271;SDS011;6198;51.446;6.698;2023-11-21T13:22:55;30.27;;;18.03;;
12271;SDS011;6198;51.446;6.698;2023-11-21T13:25:26;27.23;;;16.70;;
12271;SDS011;6198;51.446;6.698;2023-11-21T13:27:55;26.20;;;16.73;;
12271;SDS011;6198;51.446;6.698;2023-11-21T13:30:21;26.83;;;15.27;;
12271;SDS011;6198;51.446;6.698;2023-11-21T13:33:14;28.37;;;15.50;;
12271;SDS011;6198;51.446;6.698;2023-11-21T13:35:46;24.40;;;14.33;;
12271;SDS011;6198;51.446;6.698;2023-11-21T13:38:17;26.13;;;15.20;;
12271;SDS011;6198;51.446;6.698;2023-11-21T13:40:48;25.47;;;15.27;;
12271;SDS011;6198;51.446;6.698;2023-11-21T13:43:15;23.17;;;13.63;;
12271;SDS011;6198;51.446;6.698;2023-11-21T13:45:43;20.97;;;13.80;;
12271;SDS011;6198;51.446;6.698;2023-11-21T13:48:11;23.37;;;13.67;;
12271;SDS011;6198;51.446;6.698;2023-11-21T13:50:47;27.33;;;15.37;;
12271;SDS011;6198;51.446;6.698;2023-11-21T13:53:21;23.50;;;14.70;;
12271;SDS011;6198;51.446;6.698;2023-11-21T13:55:50;27.40;;;15.90;;
12271;SDS011;6198;51.446;6.698;2023-11-21T13:58:19;24.30;;;16.03;;
12271;SDS011;6198;51.446;6.698;2023-11-21T14:00:49;25.80;;;15.87;;
12271;SDS011;6198;51.446;6.698;2023-11-21T14:03:21;30.27;;;18.03;;
12271;SDS011;6198;51.446;6.698;2023-11-21T14:05:48;30.00;;;17.47;;
12271;SDS011;6198;51.446;6.698;2023-11-21T14:08:18;30.30;;;19.00;;
12271;SDS011;6198;51.446;6.698;2023-11-21T14:10:45;27.63;;;16.37;;
12271;SDS011;6198;51.446;6.698;2023-11-21T14:13:16;30.07;;;17.13;;
12271;SDS011;6198;51.446;6.698;2023-11-21T14:15:42;29.87;;;18.23;;
12271;SDS011;6198;51.446;6.698;2023-11-21T14:18:11;30.80;;;18.77;;
12271;SDS011;6198;51.446;6.698;2023-11-21T14:20:39;33.27;;;19.07;;
12271;SDS011;6198;51.446;6.698;2023-11-21T14:23:05;33.73;;;19.33;;
12271;SDS011;6198;51.446;6.698;2023-11-21T14:25:35;35.13;;;18.30;;
12271;SDS011;6198;51.446;6.698;2023-11-21T14:28:07;31.30;;;19.30;;
12271;SDS011;6198;51.446;6.698;2023-11-21T14:30:33;32.77;;;18.77;;
12271;SDS011;6198;51.446;6.698;2023-11-21T14:33:01;30.80;;;18.33;;
12271;SDS011;6198;51.446;6.698;2023-11-21T14:35:27;29.67;;;18.70;;
12271;SDS011;6198;51.446;6.698;2023-11-21T14:37:57;35.00;;;21.40;;
12271;SDS011;6198;51.446;6.698;2023-11-21T14:40:24;32.47;;;20.37;;
12271;SDS011;6198;51.446;6.698;2023-11-21T14:42:50;30.17;;;19.77;;
12271;SDS011;6198;51.446;6.698;2023-11-21T14:45:22;27.87;;;17.93;;
12271;SDS011;6198;51.446;6.698;2023-11-21T14:47:51;30.30;;;19.07;;
12271;SDS011;6198;51.446;6.698;2023-11-21T14:50:35;30.70;;;18.50;;
12271;SDS011;6198;51.446;6.698;2023-11-21T14:53:10;28.90;;;15.43;;
12271;SDS011;6198;51.446;6.698;2023-11-21T14:55:38;26.43;;;16.50;;